Time;durP1;ratioP1;P1;durP2;ratioP2;P2;SDS_P1;SDS_P2;PMS_P1;PMS_P2;Temp;Humidity;BMP_temperature;BMP_pressure;BME280_temperature;BME280_humidity;BME280_pressure;Samples;Min_cycle;Max_cycle;Signal;HPM_P1;HPM_P2
2022/05/18 00:02:13;;;;;;;5.32;5.10;;;;;;;18.72;70.85;101443.53;6079733;23;20629;-73
2022/05/18 00:04:39;;;;;;;6.68;6.38;;;;;;;18.49;70.81;101410.69;6081136;23;20025;-72
2022/05/18 00:07:06;;;;;;;5.10;4.90;;;;;;;18.47;70.80;101408.16;6054960;23;20108;-73
2022/05/18 00:09:32;;;;;;;6.82;6.53;;;;;;;18.70;71.21;101449.00;6084399;23;20021;-74
2022/05/18 00:11:59;;;;;;;5.38;5.18;;;;;;;18.63;71.36;101450.41;6082598;23;20040;-74
2022/05/18 00:14:25;;;;;;;5.35;5.05;;;;;;;18.55;72.40;101452.78;6064347;23;20093;-73
2022/05/18 00:16:52;;;;;;;5.18;4.97;;;;;;;18.53;72.11;101452.03;6081417;23;20116;-74
2022/05/18 00:19:18;;;;;;;5.00;4.80;;;;;;;18.46;72.41;101454.31;6057916;23;20072;-72
2022/05/18 00:21:45;;;;;;;5.38;5.18;;;;;;;18.50;72.11;101452.25;6084977;23;20032;-72
2022/05/18 00:24:13;;;;;;;5.05;4.80;;;;;;;18.43;72.23;101451.03;6042066;23;20722;-74
2022/05/18 00:26:39;;;;;;;6.55;6.25;;;;;;;18.45;72.12;101467.72;6067480;23;20530;-74
2022/05/18 00:29:05;;;;;;;5.20;5.00;;;;;;;18.01;72.61;101410.69;6042855;23;20022;-72
2022/05/18 00:31:32;;;;;;;6.32;6.03;;;;;;;18.30;73.67;101470.53;6067302;23;20022;-73
2022/05/18 00:33:58;;;;;;;5.15;4.95;;;;;;;18.18;73.05;101450.16;6053870;23;20014;-72
2022/05/18 00:36:25;;;;;;;5.00;4.80;;;;;;;18.17;74.03;101451.09;6040353;23;20011;-73
2022/05/18 00:38:51;;;;;;;5.15;4.95;;;;;;;18.20;73.74;101460.66;6065647;23;20409;-72
2022/05/18 00:41:19;;;;;;;5.07;4.88;;;;;;;17.75;73.98;101402.75;6059760;23;20030;-74
2022/05/18 00:43:49;;;;;;;5.47;5.18;;;;;;;18.02;74.53;101452.19;6073150;23;20022;-73
2022/05/18 00:46:16;;;;;;;5.30;5.10;;;;;;;18.09;74.72;101472.91;6072555;23;20021;-74
2022/05/18 00:48:50;;;;;;;5.43;5.22;;;;;;;18.04;74.90;101469.75;6049813;23;20038;-74
2022/05/18 00:51:22;;;;;;;5.70;5.40;;;;;;;17.98;75.69;101470.19;6071315;23;20022;-75
2022/05/18 00:54:06;;;;;;;5.20;5.00;;;;;;;17.94;75.80;101477.53;6046396;23;20038;-74
2022/05/18 00:56:39;;;;;;;6.43;6.13;;;;;;;17.90;75.29;101478.69;6078193;23;20372;-71
2022/05/18 00:59:10;;;;;;;6.85;6.45;;;;;;;17.45;75.98;101417.22;6072332;23;20039;-72
2022/05/18 01:01:38;;;;;;;6.68;6.28;;;;;;;17.51;76.50;101440.66;6050549;23;20018;-74
2022/05/18 01:04:07;;;;;;;5.60;5.30;;;;;;;17.48;76.37;101450.63;6081608;23;20026;-73
2022/05/18 01:06:51;;;;;;;6.80;6.40;;;;;;;17.66;76.64;101489.19;6055125;23;20026;-75
2022/05/18 01:09:29;;;;;;;5.03;4.82;;;;;;;17.63;77.08;101484.09;6080299;23;20042;-72
2022/05/18 01:11:56;;;;;;;5.00;4.80;;;;;;;17.66;77.60;101490.97;6049673;23;20034;-73
2022/05/18 01:14:28;;;;;;;5.20;5.00;;;;;;;17.61;78.16;101487.81;6038845;23;20070;-72
2022/05/18 01:16:55;;;;;;;5.72;5.32;;;;;;;17.21;78.22;101433.03;6030061;23;20472;-70
2022/05/18 01:19:31;;;;;;;6.00;5.50;;;;;;;17.51;78.96;101493.75;6050476;23;20090;-72
2022/05/18 01:22:07;;;;;;;5.00;4.80;;;;;;;17.45;79.20;101494.16;6025533;23;20091;-72
2022/05/18 01:24:46;;;;;;;6.85;6.55;;;;;;;17.31;79.68;101478.34;6039340;23;20022;-71
2022/05/18 01:27:12;;;;;;;5.30;5.00;;;;;;;17.40;79.24;101488.34;5997934;23;20033;-73
2022/05/18 01:29:38;;;;;;;6.93;6.63;;;;;;;17.32;79.91;101496.81;6034623;23;20007;-73
2022/05/18 01:32:06;;;;;;;5.10;4.90;;;;;;;17.30;80.24;101497.88;6043368;23;20674;-73
2022/05/18 01:34:35;;;;;;;6.43;6.13;;;;;;;17.29;80.93;101493.50;6028680;23;20018;-72
2022/05/18 01:37:02;;;;;;;5.10;4.90;;;;;;;17.28;80.31;101502.41;6046238;23;20085;-73
2022/05/18 01:39:42;;;;;;;5.70;5.40;;;;;;;17.21;81.29;101495.84;6017552;23;20026;-72
2022/05/18 01:42:39;;;;;;;5.03;4.82;;;;;;;16.78;81.58;101432.38;6040187;23;20028;-74
2022/05/18 01:45:06;;;;;;;5.50;5.20;;;;;;;16.73;81.10;101428.22;6050306;23;20061;-76
2022/05/18 01:47:35;;;;;;;5.95;5.65;;;;;;;16.69;82.45;101439.16;6028754;23;20022;-74
2022/05/18 01:50:05;;;;;;;5.70;5.40;;;;;;;17.06;83.06;101492.41;6058022;23;20624;-75
2022/05/18 01:52:32;;;;;;;6.28;5.97;;;;;;;16.94;83.39;101488.78;6012227;23;20007;-75
2022/05/18 01:54:59;;;;;;;5.22;4.95;;;;;;;16.92;83.54;101490.69;6053191;23;20011;-75
2022/05/18 01:57:26;;;;;;;5.15;4.95;;;;;;;16.88;83.69;101490.03;6020649;23;20012;-71
2022/05/18 01:59:52;;;;;;;5.28;5.07;;;;;;;16.82;84.48;101497.53;6060335;23;20508;-75
2022/05/18 02:02:18;;;;;;;5.43;5.13;;;;;;;16.53;84.63;101463.16;6055577;23;20003;-75
2022/05/18 02:04:45;;;;;;;6.30;6.00;;;;;;;16.41;85.29;101440.09;6030922;23;20014;-73
2022/05/18 02:07:13;;;;;;;5.65;5.35;;;;;;;16.39;85.37;101434.06;6054100;23;20348;-73
2022/05/18 02:09:40;;;;;;;6.47;6.18;;;;;;;16.83;84.65;101497.44;6025271;23;20015;-73
2022/05/18 02:12:09;;;;;;;5.10;4.88;;;;;;;16.77;85.75;101504.91;6045636;23;20093;-74
2022/05/18 02:14:36;;;;;;;5.40;5.10;;;;;;;16.74;85.68;101498.03;6005758;23;20011;-73
2022/05/18 02:17:03;;;;;;;5.40;5.10;;;;;;;16.50;86.39;101458.91;6003207;23;20517;-74
2022/05/18 02:19:29;;;;;;;6.25;5.95;;;;;;;16.81;85.53;101501.09;6031439;23;20015;-74
2022/05/18 02:21:56;;;;;;;5.20;5.00;;;;;;;16.51;86.12;101471.19;5999570;23;20075;-74
2022/05/18 02:24:22;;;;;;;5.63;5.32;;;;;;;16.17;87.18;101430.13;6025962;23;20019;-74
2022/05/18 02:26:49;;;;;;;5.22;5.03;;;;;;;16.42;86.38;101463.03;6014142;23;20027;-74
2022/05/18 02:29:18;;;;;;;5.20;4.90;;;;;;;16.00;87.16;101395.97;5999133;23;20027;-73
2022/05/18 02:31:44;;;;;;;5.90;5.60;;;;;;;16.59;87.01;101505.16;6019586;23;20021;-75
2022/05/18 02:34:11;;;;;;;5.00;4.80;;;;;;;16.17;87.42;101446.03;6000727;23;20027;-72
2022/05/18 02:36:37;;;;;;;6.85;6.47;;;;;;;16.49;88.30;101504.06;5976449;23;20083;-72
2022/05/18 02:39:04;;;;;;;5.20;4.90;;;;;;;15.86;88.69;101416.22;6017604;23;20358;-73
2022/05/18 02:41:30;;;;;;;6.43;6.13;;;;;;;16.11;88.67;101447.25;5995653;23;20015;-74
2022/05/18 02:43:59;;;;;;;5.65;5.35;;;;;;;16.35;89.00;101483.72;6027101;23;20078;-75
2022/05/18 02:46:26;;;;;;;5.22;4.93;;;;;;;16.46;89.30;101501.63;6026984;23;20033;-73
2022/05/18 02:48:52;;;;;;;5.10;4.90;;;;;;;16.09;89.32;101448.31;6003730;23;20239;-74
2022/05/18 02:51:20;;;;;;;7.07;6.72;;;;;;;15.77;89.77;101411.50;6027220;23;20032;-73
2022/05/18 02:53:46;;;;;;;5.10;4.90;;;;;;;15.97;89.60;101431.41;5995932;23;20035;-73
2022/05/18 02:56:23;;;;;;;5.40;5.10;;;;;;;16.35;89.63;101494.34;6009011;23;20046;-75
2022/05/18 02:58:51;;;;;;;4.90;4.70;;;;;;;16.31;89.42;101493.66;6002959;23;20083;-73
2022/05/18 03:01:21;;;;;;;5.07;4.88;;;;;;;16.24;89.54;101470.34;6009581;23;20026;-74
2022/05/18 03:03:48;;;;;;;5.60;5.30;;;;;;;16.22;89.87;101475.72;6008362;23;20023;-72
2022/05/18 03:06:17;;;;;;;5.28;5.03;;;;;;;16.37;89.12;101492.44;6041052;23;20034;-74
2022/05/18 03:08:44;;;;;;;6.07;5.78;;;;;;;16.34;89.52;101504.09;6005930;23;20030;-73
2022/05/18 03:11:12;;;;;;;5.45;5.20;;;;;;;16.29;90.49;101497.38;6006477;23;20027;-72
2022/05/18 03:13:40;;;;;;;6.43;6.13;;;;;;;15.04;90.20;101295.22;6011757;23;20645;-73
2022/05/18 03:16:07;;;;;;;5.00;4.80;;;;;;;16.30;90.12;101504.38;5998479;23;20026;-73
2022/05/18 03:18:35;;;;;;;8.85;6.00;;;;;;;16.25;90.17;101493.22;6022744;23;20018;-74
2022/05/18 03:23:48;;;;;;;5.15;4.95;;;;;;;16.02;90.21;101470.84;5993680;23;20633;-71
2022/05/18 03:26:21;;;;;;;5.40;5.10;;;;;;;16.27;90.61;101512.50;6022694;23;20059;-73
2022/05/18 03:28:51;;;;;;;5.13;4.93;;;;;;;15.93;90.58;101456.38;6026557;23;20019;-72
2022/05/18 03:31:18;;;;;;;4.90;4.70;;;;;;;16.23;91.00;101514.50;5999680;23;20782;-75
2022/05/18 03:33:45;;;;;;;4.93;4.72;;;;;;;16.25;90.21;101517.91;6028515;23;20019;-72
2022/05/18 03:36:13;;;;;;;5.22;5.03;;;;;;;16.27;90.71;101515.16;5994381;23;20022;-74
2022/05/18 03:38:41;;;;;;;5.18;4.88;;;;;;;16.32;90.54;101519.22;5994358;23;20015;-73
2022/05/18 03:41:08;;;;;;;5.47;5.18;;;;;;;16.34;90.22;101522.63;6019029;23;20027;-73
2022/05/18 03:43:35;;;;;;;6.40;6.10;;;;;;;16.39;90.23;101524.13;6008214;23;20070;-74
2022/05/18 03:46:03;;;;;;;4.80;4.60;;;;;;;15.95;89.57;101442.09;5997728;23;20682;-72
2022/05/18 03:48:30;;;;;;;6.18;5.88;;;;;;;16.11;89.28;101475.56;6020798;23;20036;-72
2022/05/18 03:50:58;;;;;;;5.20;4.90;;;;;;;16.49;89.70;101534.03;5991547;23;20090;-71
2022/05/18 03:53:26;;;;;;;5.30;5.00;;;;;;;16.53;89.66;101527.59;6021761;23;20022;-72
2022/05/18 03:55:52;;;;;;;5.00;4.80;;;;;;;16.38;88.75;101501.22;6025369;23;20014;-75
2022/05/18 03:58:19;;;;;;;5.35;4.85;;;;;;;16.16;88.48;101454.94;5987368;23;20025;-72
2022/05/18 04:00:48;;;;;;;5.07;4.88;;;;;;;16.71;88.11;101541.47;6016274;23;20059;-73
2022/05/18 04:03:16;;;;;;;5.55;5.25;;;;;;;16.51;87.42;101491.56;6004899;23;20050;-74
2022/05/18 04:05:43;;;;;;;6.65;6.25;;;;;;;16.82;86.98;101538.16;6005455;23;20018;-72
2022/05/18 04:08:11;;;;;;;5.35;5.03;;;;;;;16.95;86.96;101532.91;5995203;23;20131;-73
2022/05/18 04:10:39;;;;;;;6.43;6.13;;;;;;;17.05;85.73;101510.13;6022577;23;20032;-73
2022/05/18 04:13:07;;;;;;;5.40;5.10;;;;;;;17.57;83.98;101537.59;6006048;23;20015;-72
2022/05/18 04:15:33;;;;;;;6.38;6.07;;;;;;;17.39;81.49;101459.25;6052113;23;20030;-71
2022/05/18 04:18:00;;;;;;;5.60;5.30;;;;;;;18.25;79.43;101562.16;6021332;23;20524;-74
2022/05/18 04:20:27;;;;;;;5.35;5.13;;;;;;;18.69;77.53;101566.94;6046204;23;20032;-73
2022/05/18 04:22:54;;;;;;;5.60;5.20;;;;;;;19.06;74.91;101542.13;6050550;23;20045;-74
2022/05/18 04:25:25;;;;;;;5.63;5.32;;;;;;;19.29;72.82;101537.75;6010705;23;20019;-74
2022/05/18 04:27:52;;;;;;;5.28;5.07;;;;;;;19.60;71.74;101524.75;6048410;23;20526;-75
2022/05/18 04:30:22;;;;;;;5.60;5.30;;;;;;;20.14;70.65;101564.03;6047591;23;20027;-76
2022/05/18 04:32:48;;;;;;;5.80;5.50;;;;;;;20.45;67.94;101566.97;6018444;23;20705;-75
2022/05/18 04:35:19;;;;;;;5.63;5.35;;;;;;;20.59;66.25;101574.72;6044447;23;20034;-75
2022/05/18 04:37:46;;;;;;;7.63;5.90;;;;;;;20.56;66.70;101550.91;5997622;23;20021;-73
2022/05/18 04:40:12;;;;;;;5.70;5.40;;;;;;;20.42;65.50;101536.03;6038370;23;20026;-74
2022/05/18 04:42:39;;;;;;;7.07;6.75;;;;;;;20.12;66.15;101500.19;6034218;23;20092;-74
2022/05/18 04:45:09;;;;;;;5.70;5.40;;;;;;;20.68;65.50;101565.13;6015366;23;20034;-74
2022/05/18 04:47:35;;;;;;;7.35;6.95;;;;;;;19.62;65.69;101379.84;6054367;23;20015;-72
2022/05/18 04:50:02;;;;;;;5.60;5.30;;;;;;;20.82;65.16;101547.97;6026101;23;20015;-73
2022/05/18 04:52:29;;;;;;;6.18;5.88;;;;;;;20.20;64.70;101405.47;6049285;23;20021;-71
2022/05/18 04:54:55;;;;;;;5.88;5.57;;;;;;;20.66;64.33;101524.38;6045849;23;20041;-72
2022/05/18 04:57:22;;;;;;;5.40;5.20;;;;;;;20.71;65.16;101578.22;6015514;23;20023;-72
2022/05/18 04:59:49;;;;;;;5.63;5.35;;;;;;;20.67;64.85;101552.75;6047929;23;20515;-75
2022/05/18 05:02:16;;;;;;;5.70;5.40;;;;;;;20.91;64.84;101553.41;6043259;23;20037;-71
2022/05/18 05:04:43;;;;;;;6.95;6.55;;;;;;;20.90;64.46;101580.22;6028278;23;20598;-71
2022/05/18 05:07:10;;;;;;;6.00;5.70;;;;;;;21.34;63.70;101580.19;6071382;23;21474;-71
2022/05/18 05:09:37;;;;;;;7.28;6.88;;;;;;;21.21;62.02;101532.28;6025155;23;20571;-73
2022/05/18 05:12:05;;;;;;;6.43;6.13;;;;;;;21.23;63.04;101547.22;6064734;23;20435;-74
2022/05/18 05:14:34;;;;;;;6.32;6.03;;;;;;;21.62;61.00;101549.34;6024812;23;20015;-71
2022/05/18 05:17:01;;;;;;;5.78;5.47;;;;;;;21.73;60.11;101519.88;6024912;23;20034;-73
2022/05/18 05:19:27;;;;;;;6.13;5.82;;;;;;;21.94;60.30;101556.41;6061280;23;20525;-72
2022/05/18 05:21:54;;;;;;;5.90;5.60;;;;;;;22.61;57.67;101547.81;6045502;23;20033;-74
2022/05/18 05:24:20;;;;;;;6.10;5.80;;;;;;;22.53;57.88;101550.31;6068057;23;20033;-73
2022/05/18 05:26:47;;;;;;;6.53;6.13;;;;;;;22.98;57.35;101603.34;6047594;23;20015;-73
2022/05/18 05:29:14;;;;;;;6.00;5.70;;;;;;;23.50;55.63;101606.63;6025903;23;20448;-75
2022/05/18 05:31:40;;;;;;;6.78;6.47;;;;;;;22.97;54.72;101537.41;6045651;23;20019;-75
2022/05/18 05:34:07;;;;;;;6.15;5.85;;;;;;;23.35;54.79;101600.00;6021160;23;20069;-73
2022/05/18 05:36:34;;;;;;;7.45;7.05;;;;;;;23.12;55.03;101537.03;6044055;23;20028;-74
2022/05/18 05:39:01;;;;;;;6.45;6.05;;;;;;;23.69;54.28;101615.63;6005718;23;20034;-73
2022/05/18 05:41:28;;;;;;;5.88;5.57;;;;;;;22.83;54.09;101495.00;6061010;23;20077;-74
2022/05/18 05:43:55;;;;;;;5.88;5.57;;;;;;;23.21;53.30;101528.13;6069517;23;20030;-74
2022/05/18 05:46:23;;;;;;;6.03;5.72;;;;;;;23.46;53.95;101621.31;6030013;23;20022;-72
2022/05/18 05:48:50;;;;;;;6.20;5.90;;;;;;;23.25;54.77;101556.31;6024345;23;20325;-71
2022/05/18 05:51:18;;;;;;;5.78;5.50;;;;;;;23.40;54.48;101605.78;6059463;23;20029;-72
2022/05/18 05:53:46;;;;;;;6.60;6.30;;;;;;;24.13;52.55;101605.25;6036989;23;20368;-73
2022/05/18 05:56:15;;;;;;;6.15;5.85;;;;;;;24.16;53.32;101604.97;6063703;23;20612;-72
2022/05/18 05:58:43;;;;;;;7.15;6.75;;;;;;;24.00;51.64;101545.75;6024743;23;20101;-73
2022/05/18 06:01:12;;;;;;;5.90;5.60;;;;;;;24.31;51.48;101602.63;6060597;23;20026;-73
2022/05/18 06:03:39;;;;;;;7.15;6.65;;;;;;;24.26;50.00;101536.03;6035875;23;20015;-74
2022/05/18 06:06:08;;;;;;;5.68;5.38;;;;;;;23.59;53.58;101621.00;6033671;23;20594;-71
2022/05/18 06:08:35;;;;;;;7.13;6.82;;;;;;;23.47;54.52;101619.47;6023816;23;20074;-74
2022/05/18 06:11:02;;;;;;;5.82;5.53;;;;;;;23.28;53.24;101554.22;6070058;23;20010;-71
2022/05/18 06:13:29;;;;;;;6.07;5.70;;;;;;;23.13;53.44;101542.22;6022765;23;20021;-72
2022/05/18 06:15:56;;;;;;;6.10;5.80;;;;;;;23.28;54.69;101612.28;6021640;23;20023;-75
2022/05/18 06:18:22;;;;;;;5.97;5.68;;;;;;;22.80;55.08;101559.53;6049506;23;20033;-71
2022/05/18 06:20:49;;;;;;;5.85;5.55;;;;;;;22.33;54.74;101512.00;5999705;23;20037;-72
2022/05/18 06:23:16;;;;;;;5.60;5.35;;;;;;;22.66;56.23;101612.44;6046388;23;20042;-72
2022/05/18 06:25:43;;;;;;;6.93;6.57;;;;;;;22.76;56.67;101614.31;6048516;23;20103;-74
2022/05/18 06:28:10;;;;;;;10.27;5.40;;;;;;;22.68;56.65;101618.50;6004604;23;20038;-74
2022/05/18 06:30:38;;;;;;;7.38;7.00;;;;;;;22.40;57.56;101577.31;6043513;23;20029;-74
2022/05/18 06:33:05;;;;;;;5.88;5.57;;;;;;;22.52;56.89;101566.50;6047450;23;20611;-72
2022/05/18 06:35:32;;;;;;;6.82;6.53;;;;;;;22.88;56.25;101605.19;6022251;23;20102;-74
2022/05/18 06:37:58;;;;;;;5.90;5.60;;;;;;;23.16;55.49;101653.59;6037842;23;20022;-73
2022/05/18 06:41:21;;;;;;;6.18;5.70;;;;;;;22.83;55.73;101602.91;6018200;23;20105;-74
2022/05/18 06:43:12;;;;;;;5.70;5.40;;;;;;;22.81;57.85;101628.09;6015543;23;20023;-73
2022/05/18 06:45:38;;;;;;;7.28;6.88;;;;;;;22.77;56.05;101624.88;6036091;23;20037;-71
2022/05/18 06:48:07;;;;;;;5.80;5.50;;;;;;;22.86;57.18;101626.72;6053554;23;20022;-72
2022/05/18 06:50:53;;;;;;;6.00;5.70;;;;;;;22.54;56.33;101557.34;6020326;23;20022;-72
2022/05/18 06:53:20;;;;;;;5.53;5.28;;;;;;;23.19;55.15;101618.47;6055381;23;20472;-73
2022/05/18 06:55:47;;;;;;;5.93;5.63;;;;;;;23.38;53.93;101623.84;6022919;23;20013;-73
2022/05/18 06:58:29;;;;;;;6.03;5.72;;;;;;;22.97;54.92;101553.47;6030919;23;20106;-72
2022/05/18 07:00:55;;;;;;;5.70;5.40;;;;;;;23.01;53.96;101562.94;6058969;23;20494;-72
2022/05/18 07:03:22;;;;;;;5.75;5.45;;;;;;;23.02;53.97;101540.53;6022688;23;20034;-72
2022/05/18 07:05:48;;;;;;;5.93;5.63;;;;;;;23.68;54.04;101627.34;6049719;23;20052;-72
2022/05/18 07:08:15;;;;;;;6.00;5.70;;;;;;;23.78;53.89;101633.56;6052762;23;20408;-73
2022/05/18 07:10:42;;;;;;;6.72;6.43;;;;;;;23.79;52.67;101629.88;6026022;23;20021;-70
2022/05/18 07:13:08;;;;;;;6.05;5.75;;;;;;;23.93;53.12;101622.41;6038043;23;20082;-71
2022/05/18 07:15:34;;;;;;;6.65;6.25;;;;;;;23.94;51.82;101626.78;5986286;23;20027;-70
2022/05/18 07:18:01;;;;;;;5.60;5.40;;;;;;;23.95;52.45;101631.13;6012928;23;20015;-71
2022/05/18 07:20:29;;;;;;;5.85;5.55;;;;;;;23.92;52.86;101623.41;6022784;23;20109;-71
2022/05/18 07:22:56;;;;;;;5.93;5.63;;;;;;;22.77;51.57;101440.22;5988272;23;20020;-73
2022/05/18 07:25:22;;;;;;;5.70;5.40;;;;;;;23.88;51.24;101628.19;6011172;23;20096;-75
2022/05/18 07:27:48;;;;;;;6.20;5.90;;;;;;;23.77;51.90;101601.50;5985792;23;20623;-74
2022/05/18 07:30:36;;;;;;;6.90;6.60;;;;;;;24.06;50.61;101636.34;6011816;23;20035;-71
2022/05/18 07:33:02;;;;;;;6.32;6.03;;;;;;;24.21;49.80;101637.53;6022540;23;20027;-71
2022/05/18 07:35:29;;;;;;;6.32;6.03;;;;;;;24.24;50.87;101629.22;5983158;23;20082;-72
2022/05/18 07:37:57;;;;;;;6.10;5.80;;;;;;;24.43;49.32;101630.13;6009278;23;20631;-71
2022/05/18 07:40:44;;;;;;;7.13;6.82;;;;;;;24.23;49.04;101624.81;5997107;23;20025;-71
2022/05/18 07:43:11;;;;;;;5.75;5.45;;;;;;;23.77;50.64;101556.81;5976525;23;20033;-71
2022/05/18 07:45:37;;;;;;;7.25;6.88;;;;;;;24.01;50.73;101568.88;6017653;23;20034;-72
2022/05/18 07:48:04;;;;;;;5.80;5.50;;;;;;;24.41;51.05;101591.88;6024231;23;20079;-71
2022/05/18 07:50:30;;;;;;;6.78;6.47;;;;;;;24.35;49.23;101552.22;5991199;23;20027;-73
2022/05/18 07:52:59;;;;;;;6.40;6.10;;;;;;;24.19;48.43;101553.69;6013526;23;20023;-70
2022/05/18 07:55:26;;;;;;;6.15;5.85;;;;;;;24.59;49.45;101608.88;5987608;23;20031;-72
2022/05/18 07:57:54;;;;;;;5.60;5.40;;;;;;;24.98;48.77;101616.72;5977668;23;20449;-72
2022/05/18 08:00:23;;;;;;;5.80;5.50;;;;;;;25.10;47.90;101625.41;6007669;23;20268;-72
2022/05/18 08:02:50;;;;;;;5.90;5.60;;;;;;;25.16;47.63;101618.53;6013509;23;20030;-71
2022/05/18 08:05:17;;;;;;;5.85;5.45;;;;;;;25.19;47.15;101623.63;5998777;23;20031;-73
2022/05/18 08:07:47;;;;;;;7.15;6.85;;;;;;;25.26;46.66;101616.69;6018628;23;20017;-72
2022/05/18 08:15:49;;;;;;;6.45;6.13;;;;;;;25.38;47.51;101609.19;6044903;23;20026;-72
2022/05/18 08:18:17;;;;;;;5.85;5.55;;;;;;;25.53;47.13;101607.66;6039254;23;20033;-72
2022/05/18 08:20:50;;;;;;;5.35;5.15;;;;;;;25.23;46.58;101529.16;6020484;23;20042;-72
2022/05/18 08:23:17;;;;;;;6.53;6.13;;;;;;;25.97;46.71;101596.06;6044530;23;20042;-71
2022/05/18 08:25:46;;;;;;;7.47;6.97;;;;;;;26.21;45.26;101589.97;6030777;23;20042;-72
2022/05/18 08:28:13;;;;;;;6.00;5.70;;;;;;;26.47;45.32;101623.03;6017959;23;20030;-72
2022/05/18 08:30:42;;;;;;;7.07;6.78;;;;;;;26.59;44.81;101622.78;6052736;23;20010;-71
2022/05/18 08:33:09;;;;;;;5.80;5.50;;;;;;;26.05;44.23;101542.31;6032265;23;20634;-72
2022/05/18 08:35:35;;;;;;;6.50;6.20;;;;;;;26.50;44.81;101572.56;6060333;23;20006;-71
2022/05/18 08:38:02;;;;;;;5.90;5.60;;;;;;;26.76;43.66;101596.75;6052868;23;20034;-72
2022/05/18 08:40:29;;;;;;;6.53;6.18;;;;;;;26.97;42.88;101650.16;6039156;23;20022;-72
2022/05/18 08:42:57;;;;;;;6.05;5.75;;;;;;;26.61;42.75;101564.22;6052091;23;20020;-71
2022/05/18 08:45:29;;;;;;;5.70;5.40;;;;;;;26.50;42.85;101549.22;6023962;23;20042;-73
2022/05/18 08:48:07;;;;;;;6.40;6.10;;;;;;;27.07;42.89;101629.31;6059547;23;20026;-71
2022/05/18 08:50:36;;;;;;;6.97;6.68;;;;;;;27.36;42.39;101631.56;6029512;23;20471;-73
2022/05/18 08:53:23;;;;;;;5.70;5.50;;;;;;;27.39;41.34;101628.53;6054102;23;20030;-72
2022/05/18 08:56:03;;;;;;;5.90;5.60;;;;;;;27.42;41.99;101619.25;6008679;23;20588;-72
2022/05/18 08:58:37;;;;;;;7.15;6.55;;;;;;;27.63;42.00;101616.88;6025126;23;20046;-72
2022/05/18 09:01:12;;;;;;;6.00;5.70;;;;;;;27.87;41.35;101617.03;6045659;23;20024;-72
2022/05/18 09:03:47;;;;;;;7.10;6.70;;;;;;;27.82;40.71;101620.22;6014932;23;20018;-72
2022/05/18 09:06:38;;;;;;;6.00;5.65;;;;;;;27.68;40.74;101624.47;6041873;23;20027;-71
2022/05/18 09:12:01;;;;;;;6.20;5.88;;;;;;;27.68;40.22;101629.03;6044726;23;20029;-74
2022/05/18 09:14:37;;;;;;;6.22;5.93;;;;;;;27.61;40.51;101624.31;6005797;23;20073;-72
2022/05/18 09:17:25;;;;;;;6.03;5.72;;;;;;;27.80;41.04;101620.41;6041959;23;20019;-72
2022/05/18 09:20:00;;;;;;;6.20;5.80;;;;;;;28.03;40.00;101617.88;6039984;23;20159;-72
2022/05/18 09:22:50;;;;;;;6.20;5.90;;;;;;;28.22;39.21;101621.16;6009438;23;20008;-71
2022/05/18 09:25:28;;;;;;;6.65;6.35;;;;;;;27.63;39.57;101529.75;5994394;23;20034;-73
2022/05/18 09:28:22;;;;;;;5.80;5.50;;;;;;;27.97;39.80;101610.47;6017724;23;20098;-73
2022/05/18 09:30:54;;;;;;;6.40;6.10;;;;;;;28.10;40.32;101617.16;6041091;23;20038;-71
2022/05/18 09:33:47;;;;;;;5.82;5.53;;;;;;;27.96;39.61;101546.69;6048235;23;20017;-72
2022/05/18 09:36:30;;;;;;;6.45;5.95;;;;;;;28.69;39.42;101611.41;6021143;23;20030;-71
2022/05/18 09:39:10;;;;;;;6.72;6.18;;;;;;;28.92;39.23;101604.16;6041244;23;20018;-71
2022/05/18 09:41:44;;;;;;;7.28;6.88;;;;;;;29.10;37.87;101603.84;6011835;23;20019;-72
2022/05/18 09:44:50;;;;;;;6.05;5.75;;;;;;;29.22;37.48;101597.03;6042289;23;20022;-71
2022/05/18 09:47:21;;;;;;;5.78;5.47;;;;;;;29.21;37.71;101605.34;6020483;23;20065;-72
2022/05/18 09:49:53;;;;;;;6.45;6.15;;;;;;;29.02;38.33;101593.94;6046617;23;20015;-72
2022/05/18 09:52:24;;;;;;;6.15;5.85;;;;;;;29.23;38.57;101597.88;6064766;23;20033;-75
2022/05/18 09:54:53;;;;;;;6.50;6.20;;;;;;;29.13;37.36;101600.00;6050172;23;20547;-71
2022/05/18 09:57:34;;;;;;;6.15;5.85;;;;;;;29.30;37.28;101606.09;6019035;23;20015;-71
2022/05/18 10:00:05;;;;;;;5.95;5.65;;;;;;;29.26;37.10;101605.63;6045537;23;20039;-74
2022/05/18 10:08:30;;;;;;;6.70;6.40;;;;;;;29.63;37.23;101576.91;6026964;23;20448;-72
2022/05/18 10:11:00;;;;;;;6.32;6.03;;;;;;;29.85;37.48;101587.84;6035201;23;20014;-73
2022/05/18 10:13:32;;;;;;;6.25;5.85;;;;;;;29.74;36.08;101546.69;5994594;23;20475;-71
2022/05/18 10:16:10;;;;;;;5.80;5.50;;;;;;;29.91;36.09;101587.09;6019088;23;20022;-75
2022/05/18 10:18:57;;;;;;;7.40;7.07;;;;;;;29.90;34.47;101590.84;6018291;23;20026;-71
2022/05/18 10:21:33;;;;;;;6.20;5.90;;;;;;;30.07;35.15;101584.25;6043839;23;20021;-73
2022/05/18 10:24:01;;;;;;;6.10;5.80;;;;;;;30.12;31.97;101589.91;6019625;23;20037;-72
2022/05/18 10:26:32;;;;;;;6.22;5.93;;;;;;;30.36;33.63;101582.56;6042362;23;20117;-73
2022/05/18 10:29:23;;;;;;;6.20;5.90;;;;;;;30.28;33.61;101575.34;6021322;23;20021;-70
2022/05/18 10:32:06;;;;;;;6.30;6.00;;;;;;;30.10;34.24;101575.72;6047379;23;20026;-73
2022/05/18 10:34:50;;;;;;;7.25;6.95;;;;;;;30.16;32.82;101571.44;6037551;23;20098;-72
2022/05/18 10:37:42;;;;;;;6.20;5.90;;;;;;;30.35;31.90;101576.31;6020099;23;20087;-73
2022/05/18 10:40:13;;;;;;;6.63;6.22;;;;;;;30.18;31.69;101570.22;6039238;23;20022;-73
2022/05/18 10:42:48;;;;;;;7.65;7.25;;;;;;;30.28;31.19;101593.47;6014558;23;20093;-76
2022/05/18 10:45:26;;;;;;;6.13;5.82;;;;;;;30.60;31.87;101560.53;6040977;23;20819;-74
2022/05/18 10:47:57;;;;;;;6.72;6.22;;;;;;;30.69;30.68;101565.81;6023124;23;20034;-75
2022/05/18 10:50:37;;;;;;;5.95;5.65;;;;;;;30.73;33.00;101556.28;6052785;23;20133;-73
2022/05/18 10:53:13;;;;;;;6.13;5.82;;;;;;;30.56;31.50;101553.81;6021818;23;20687;-72
2022/05/18 10:56:07;;;;;;;7.35;7.05;;;;;;;30.65;29.89;101562.69;6042818;23;20739;-72
2022/05/18 10:58:39;;;;;;;7.43;6.97;;;;;;;30.44;31.24;101551.81;6005606;23;20739;-72
2022/05/18 11:01:13;;;;;;;7.20;6.70;;;;;;;30.37;30.70;101552.56;6050968;23;20034;-72
2022/05/18 11:03:57;;;;;;;7.38;7.05;;;;;;;30.53;30.66;101545.22;6018578;23;20023;-72
2022/05/18 11:06:33;;;;;;;5.97;5.68;;;;;;;30.36;31.13;101495.88;6038125;23;20018;-73
2022/05/18 11:09:02;;;;;;;6.10;5.80;;;;;;;30.84;29.85;101552.25;6056414;23;20427;-71
2022/05/18 11:11:50;;;;;;;6.47;6.18;;;;;;;30.91;29.71;101553.16;6019512;23;20042;-71
2022/05/18 11:14:31;;;;;;;6.20;5.90;;;;;;;31.05;30.14;101551.41;6053328;23;20038;-71
2022/05/18 11:17:04;;;;;;;6.30;6.00;;;;;;;30.79;30.74;101490.47;6019652;23;20193;-71
2022/05/18 11:19:48;;;;;;;7.18;6.82;;;;;;;31.26;29.54;101510.72;6053265;23;20022;-72
2022/05/18 11:22:42;;;;;;;6.55;6.25;;;;;;;31.39;29.25;101535.22;6051489;23;20093;-71
2022/05/18 11:25:28;;;;;;;6.45;6.15;;;;;;;31.23;30.23;101502.13;6027633;23;20022;-70
2022/05/18 11:28:44;;;;;;;6.50;6.20;;;;;;;31.00;28.48;101470.69;6054061;23;20026;-71
2022/05/18 11:31:26;;;;;;;6.00;5.70;;;;;;;31.55;28.52;101539.56;6030284;23;20027;-74
2022/05/18 11:34:15;;;;;;;6.05;5.75;;;;;;;30.95;29.28;101459.56;6030946;23;20080;-72
2022/05/18 11:37:06;;;;;;;7.18;6.88;;;;;;;31.20;28.10;101485.22;6057614;23;20010;-71
2022/05/18 11:39:45;;;;;;;7.30;6.90;;;;;;;31.66;26.91;101540.03;6001104;23;20018;-71
2022/05/18 11:42:21;;;;;;;6.10;5.80;;;;;;;31.73;27.46;101528.19;6053271;23;20029;-70
2022/05/18 11:45:06;;;;;;;6.00;5.70;;;;;;;31.93;27.82;101522.81;6061831;23;20038;-71
2022/05/18 11:47:40;;;;;;;6.97;6.68;;;;;;;32.08;28.30;101525.44;5991374;23;20405;-71
2022/05/18 11:50:22;;;;;;;5.78;5.47;;;;;;;31.93;26.30;101530.97;6032438;23;20475;-71
2022/05/18 11:53:06;;;;;;;19.95;18.95;;;;;;;30.91;27.66;101376.97;5972195;23;20410;-72
2022/05/18 11:56:02;;;;;;;7.13;6.72;;;;;;;31.39;26.09;101526.22;5973811;23;20015;-71
2022/05/18 11:58:47;;;;;;;6.43;6.13;;;;;;;31.78;27.39;101517.53;6021171;23;20037;-72
2022/05/18 12:01:39;;;;;;;6.20;5.90;;;;;;;31.75;25.20;101530.66;6059158;23;20113;-71